createdAt,value
2017-07-24T00:00:11.135Z,3.53
2017-07-24T00:02:38.678Z,3.97
2017-07-24T00:05:06.211Z,3.80
2017-07-24T00:07:33.771Z,4.30
2017-07-24T00:10:01.299Z,4.10
2017-07-24T00:12:28.849Z,3.50
2017-07-24T00:14:57.145Z,4.47
2017-07-24T00:17:24.699Z,4.07
2017-07-24T00:19:52.240Z,4.50
2017-07-24T00:22:20.550Z,4.50
2017-07-24T00:24:48.074Z,4.10
2017-07-24T00:27:16.406Z,5.30
2017-07-24T00:29:43.931Z,4.90
2017-07-24T00:32:11.477Z,4.80
2017-07-24T00:34:39.006Z,4.90
2017-07-24T00:37:06.550Z,5.00
2017-07-24T00:39:34.075Z,4.37
2017-07-24T00:42:01.644Z,4.40
2017-07-24T00:44:29.182Z,5.33
2017-07-24T00:46:56.715Z,5.70
2017-07-24T00:49:24.266Z,5.30
2017-07-24T00:51:51.803Z,5.50
2017-07-24T00:54:19.359Z,5.80
2017-07-24T00:56:46.895Z,5.50
2017-07-24T00:59:14.451Z,6.50
2017-07-24T01:01:41.979Z,7.03
2017-07-24T01:04:10.307Z,6.43
2017-07-24T01:06:37.847Z,5.40
2017-07-24T01:09:05.407Z,6.43
2017-07-24T01:11:32.926Z,6.10
2017-07-24T01:14:00.481Z,6.80
2017-07-24T01:16:28.004Z,6.00
2017-07-24T01:18:55.555Z,6.13
2017-07-24T01:21:23.092Z,5.97
2017-07-24T01:23:50.647Z,5.93
2017-07-24T01:26:18.945Z,5.90
2017-07-24T01:28:46.502Z,6.43
2017-07-24T01:31:14.039Z,6.80
2017-07-24T01:33:42.351Z,5.57
2017-07-24T01:36:09.879Z,6.43
2017-07-24T01:38:38.201Z,6.23
2017-07-24T01:41:05.740Z,5.13
2017-07-24T01:43:33.307Z,6.43
2017-07-24T01:46:00.839Z,5.43
2017-07-24T01:48:29.133Z,6.00
2017-07-24T01:50:56.679Z,6.33
2017-07-24T01:53:24.204Z,6.80
2017-07-24T01:55:51.754Z,5.60
2017-07-24T01:58:19.286Z,5.50
2017-07-24T02:00:46.830Z,5.70
2017-07-24T02:03:14.346Z,5.30
2017-07-24T02:05:41.895Z,6.40
2017-07-24T02:08:09.424Z,5.57
2017-07-24T02:10:36.971Z,5.80
2017-07-24T02:13:04.503Z,4.90
2017-07-24T02:15:32.824Z,4.40
2017-07-24T02:18:00.356Z,5.50
2017-07-24T02:20:27.915Z,5.30
2017-07-24T02:22:55.446Z,6.30
2017-07-24T02:25:23.006Z,6.70
2017-07-24T02:27:50.535Z,6.43
2017-07-24T02:30:18.090Z,5.90
2017-07-24T02:32:45.615Z,5.30
2017-07-24T02:35:13.171Z,5.73
2017-07-24T02:37:40.699Z,5.70
2017-07-24T02:40:08.253Z,5.60
2017-07-24T02:42:35.783Z,6.20
2017-07-24T02:45:03.335Z,5.77
2017-07-24T02:47:30.858Z,5.40
2017-07-24T02:49:59.154Z,5.70
2017-07-24T02:52:26.698Z,6.30
2017-07-24T02:54:54.983Z,6.20
2017-07-24T02:57:22.539Z,7.20
2017-07-24T02:59:50.066Z,5.63
2017-07-24T03:02:17.613Z,10.63
2017-07-24T03:04:45.140Z,8.70
2017-07-24T03:07:12.682Z,5.70
2017-07-24T03:09:40.214Z,5.23
2017-07-24T03:12:07.769Z,5.93
2017-07-24T03:14:35.292Z,6.23
2017-07-24T03:17:02.847Z,6.00
2017-07-24T03:19:30.376Z,4.50
2017-07-24T03:21:57.926Z,3.83
2017-07-24T03:24:26.219Z,2.70
2017-07-24T03:26:53.766Z,2.80
2017-07-24T03:29:22.054Z,2.90
2017-07-24T03:31:49.618Z,3.30
2017-07-24T03:34:17.139Z,2.33
2017-07-24T03:36:44.667Z,2.00
2017-07-24T03:39:12.225Z,2.23
2017-07-24T03:41:39.756Z,2.60
2017-07-24T03:44:07.311Z,2.87
2017-07-24T03:46:34.842Z,3.20
2017-07-24T03:49:02.403Z,3.63
2017-07-24T03:51:29.947Z,3.57
2017-07-24T03:53:57.498Z,3.80
2017-07-24T03:56:25.031Z,4.77
2017-07-24T03:58:52.579Z,4.93
2017-07-24T04:01:20.115Z,5.07
2017-07-24T04:03:48.431Z,5.10
2017-07-24T04:06:15.971Z,6.13
2017-07-24T04:08:43.531Z,5.53
2017-07-24T04:11:11.063Z,5.53
2017-07-24T04:13:39.384Z,6.60
2017-07-24T04:16:06.907Z,5.90
2017-07-24T04:18:35.222Z,5.53
2017-07-24T04:21:02.751Z,5.47
2017-07-24T04:23:30.333Z,6.27
2017-07-24T04:25:57.869Z,5.80
2017-07-24T04:28:25.401Z,5.90
2017-07-24T04:30:53.019Z,5.70
2017-07-24T04:33:20.718Z,5.37
2017-07-24T04:35:48.269Z,5.30
2017-07-24T04:38:16.010Z,5.93
2017-07-24T04:40:43.579Z,6.23
2017-07-24T04:43:11.114Z,5.70
2017-07-24T04:45:38.666Z,5.10
2017-07-24T04:48:06.206Z,5.63
2017-07-24T04:50:35.086Z,4.33
2017-07-24T04:53:02.658Z,5.27
2017-07-24T04:55:30.979Z,5.40
2017-07-24T04:57:58.507Z,4.57
2017-07-24T05:00:26.162Z,5.60
2017-07-24T05:02:53.699Z,4.90
2017-07-24T05:05:21.900Z,5.67
2017-07-24T05:07:49.509Z,4.07
2017-07-24T05:10:17.070Z,3.70
2017-07-24T05:12:44.603Z,4.50
2017-07-24T05:15:12.155Z,3.83
2017-07-24T05:17:39.890Z,4.70
2017-07-24T05:20:07.442Z,4.10
2017-07-24T05:22:34.994Z,3.77
2017-07-24T05:25:02.525Z,4.03
2017-07-24T05:27:30.086Z,4.20
2017-07-24T05:29:57.615Z,4.30
2017-07-24T05:32:25.191Z,4.00
2017-07-24T05:34:52.723Z,4.60
2017-07-24T05:37:20.263Z,5.67
2017-07-24T05:39:48.574Z,5.10
2017-07-24T05:42:16.121Z,5.47
2017-07-24T05:44:44.043Z,5.27
2017-07-24T05:47:11.591Z,5.73
2017-07-24T05:49:39.121Z,4.70
2017-07-24T05:52:06.675Z,5.80
2017-07-24T05:54:34.205Z,6.17
2017-07-24T05:57:02.531Z,6.07
2017-07-24T05:59:30.059Z,8.10
2017-07-24T06:01:57.618Z,7.13
2017-07-24T06:04:25.902Z,8.10
2017-07-24T06:06:53.461Z,10.90
2017-07-24T06:09:20.994Z,11.57
2017-07-24T06:11:48.566Z,15.37
2017-07-24T06:14:16.866Z,14.17
2017-07-24T06:16:44.394Z,9.50
2017-07-24T06:19:12.715Z,8.00
2017-07-24T06:21:40.250Z,6.30
2017-07-24T06:24:07.802Z,7.07
2017-07-24T06:26:35.335Z,6.53
2017-07-24T06:29:02.881Z,5.73
2017-07-24T06:31:30.407Z,5.00
2017-07-24T06:33:57.965Z,5.33
2017-07-24T06:36:25.502Z,5.67
2017-07-24T06:38:53.819Z,6.43
2017-07-24T06:41:21.345Z,5.00
2017-07-24T06:43:48.902Z,5.37
2017-07-24T06:46:16.427Z,6.17
2017-07-24T06:48:43.974Z,5.00
2017-07-24T06:51:11.511Z,4.40
2017-07-24T06:53:39.054Z,4.40
2017-07-24T06:56:06.583Z,4.23
2017-07-24T06:58:34.907Z,3.90
2017-07-24T07:01:02.437Z,4.30
2017-07-24T07:03:29.986Z,3.23
2017-07-24T07:05:58.281Z,3.90
2017-07-24T07:08:25.812Z,4.20
2017-07-24T07:10:53.372Z,4.30
2017-07-24T07:13:21.675Z,3.70
2017-07-24T07:15:49.225Z,4.23
2017-07-24T07:18:17.523Z,4.57
2017-07-24T07:20:45.073Z,3.77
2017-07-24T07:23:12.603Z,4.10
2017-07-24T07:25:40.158Z,4.47
2017-07-24T07:28:07.687Z,3.50
2017-07-24T07:30:35.238Z,3.90
2017-07-24T07:33:02.767Z,4.50
2017-07-24T07:35:30.330Z,3.43
2017-07-24T07:37:57.854Z,3.40
2017-07-24T07:40:25.402Z,4.03
2017-07-24T07:42:52.931Z,3.70
2017-07-24T07:45:20.483Z,3.77
2017-07-24T07:47:48.007Z,4.90
2017-07-24T07:50:15.559Z,4.10
2017-07-24T07:52:43.086Z,3.80
2017-07-24T07:55:10.642Z,3.70
2017-07-24T07:57:38.165Z,3.77
2017-07-24T08:00:05.720Z,4.97
2017-07-24T08:02:33.253Z,4.03
2017-07-24T08:05:01.552Z,4.30
2017-07-24T08:07:29.867Z,4.90
2017-07-24T08:09:57.407Z,4.40
2017-07-24T08:12:24.959Z,4.43
2017-07-24T08:14:52.487Z,4.73
2017-07-24T08:17:20.036Z,5.00
2017-07-24T08:19:47.566Z,3.57
2017-07-24T08:22:15.118Z,4.20
2017-07-24T08:24:42.642Z,4.00
2017-07-24T08:27:10.963Z,4.10
2017-07-24T08:29:38.602Z,4.00
2017-07-24T08:32:06.153Z,4.40
2017-07-24T08:34:33.680Z,3.83
2017-07-24T08:37:01.230Z,4.53
2017-07-24T08:39:28.754Z,3.93
2017-07-24T08:41:56.300Z,3.73
2017-07-24T08:44:23.831Z,3.83
2017-07-24T08:46:52.190Z,3.47
2017-07-24T08:49:19.738Z,4.33
2017-07-24T08:51:47.287Z,4.43
2017-07-24T08:54:14.815Z,5.30
2017-07-24T08:56:42.370Z,4.03
2017-07-24T08:59:09.899Z,4.20
2017-07-24T09:01:38.190Z,3.70
2017-07-24T09:04:06.503Z,3.83
2017-07-24T09:06:34.025Z,3.87
2017-07-24T09:09:02.387Z,3.27
2017-07-24T09:11:29.914Z,3.53
2017-07-24T09:13:57.479Z,3.97
2017-07-24T09:16:25.011Z,4.13
2017-07-24T09:18:52.561Z,4.00
2017-07-24T09:21:20.091Z,4.47
2017-07-24T09:23:48.407Z,4.47
2017-07-24T09:26:15.936Z,4.80
2017-07-24T09:28:44.252Z,5.20
2017-07-24T09:31:11.776Z,4.80
2017-07-24T09:33:40.091Z,5.23
2017-07-24T09:36:07.654Z,4.53
2017-07-24T09:38:35.205Z,4.50
2017-07-24T09:41:02.745Z,4.77
2017-07-24T09:43:30.298Z,4.00
2017-07-24T09:45:57.822Z,4.33
2017-07-24T09:48:25.376Z,3.80
2017-07-24T09:50:52.910Z,3.90
2017-07-24T09:53:20.460Z,3.83
2017-07-24T09:55:47.982Z,4.53
2017-07-24T09:58:16.274Z,3.47
2017-07-24T10:00:43.829Z,3.50
2017-07-24T10:03:11.362Z,3.00
2017-07-24T10:05:38.917Z,3.87
2017-07-24T10:10:59.999Z,3.53
2017-07-24T10:13:27.530Z,3.10
2017-07-24T10:15:55.855Z,3.50
2017-07-24T10:18:23.384Z,3.07
2017-07-24T10:20:50.935Z,3.13
2017-07-24T10:23:18.472Z,3.00
2017-07-24T10:25:46.798Z,3.67
2017-07-24T10:28:14.318Z,3.23
2017-07-24T10:30:42.635Z,3.40
2017-07-24T10:33:10.152Z,3.73
2017-07-24T10:35:38.470Z,3.63
2017-07-24T10:38:06.002Z,4.37
2017-07-24T10:40:34.317Z,3.63
2017-07-24T10:43:01.833Z,3.50
2017-07-24T10:45:30.145Z,3.50
2017-07-24T10:47:57.674Z,2.93
2017-07-24T10:50:25.985Z,3.10
2017-07-24T10:52:53.507Z,3.30
2017-07-24T10:55:22.117Z,3.10
2017-07-24T10:57:50.509Z,3.30
2017-07-24T11:00:18.075Z,2.90
2017-07-24T11:02:45.595Z,3.20
2017-07-24T11:05:15.206Z,2.63
2017-07-24T11:07:42.758Z,2.40
2017-07-24T11:10:11.044Z,2.90
2017-07-24T11:12:38.607Z,2.70
2017-07-24T11:15:06.130Z,2.30
2017-07-24T11:17:33.686Z,2.50
2017-07-24T11:20:01.210Z,2.40
2017-07-24T11:22:28.761Z,2.30
2017-07-24T11:24:56.280Z,2.67
2017-07-24T11:27:24.595Z,3.03
2017-07-24T11:29:52.115Z,2.87
2017-07-24T11:32:20.424Z,2.90
2017-07-24T11:34:47.945Z,3.13
2017-07-24T11:37:15.498Z,3.20
2017-07-24T11:39:43.021Z,2.67
2017-07-24T11:42:10.566Z,2.63
2017-07-24T11:44:38.087Z,2.77
2017-07-24T11:47:06.402Z,2.33
2017-07-24T11:49:33.927Z,2.80
2017-07-24T11:52:02.248Z,3.00
2017-07-24T11:54:29.770Z,2.87
2017-07-24T11:56:58.090Z,2.57
2017-07-24T11:59:25.613Z,2.40
2017-07-24T12:01:53.907Z,2.90
2017-07-24T12:04:21.458Z,2.53
2017-07-24T12:06:48.979Z,2.40
2017-07-24T12:09:16.522Z,2.50
2017-07-24T12:11:44.047Z,3.70
2017-07-24T12:14:11.598Z,2.83
2017-07-24T12:16:39.120Z,2.50
2017-07-24T12:19:06.661Z,2.83
2017-07-24T12:21:34.188Z,2.80
2017-07-24T12:24:01.735Z,2.73
2017-07-24T12:26:29.264Z,3.00
2017-07-24T12:28:56.816Z,2.87
2017-07-24T12:31:24.343Z,3.27
2017-07-24T12:33:51.890Z,3.83
2017-07-24T12:36:19.418Z,3.10
2017-07-24T12:38:47.730Z,3.43
2017-07-24T12:41:15.282Z,3.97
2017-07-24T12:43:42.841Z,2.70
2017-07-24T12:46:10.368Z,4.23
2017-07-24T12:48:38.681Z,2.80
2017-07-24T12:51:06.198Z,2.90
2017-07-24T12:53:33.722Z,3.00
2017-07-24T12:56:01.274Z,3.00
2017-07-24T12:58:28.807Z,3.43
2017-07-24T13:00:56.358Z,3.83
2017-07-24T13:03:23.886Z,3.87
2017-07-24T13:05:51.434Z,3.57
2017-07-24T13:08:18.960Z,2.70
2017-07-24T13:10:46.516Z,3.20
2017-07-24T13:13:14.055Z,3.23
2017-07-24T13:15:41.604Z,2.93
2017-07-24T13:18:09.893Z,3.20
2017-07-24T13:20:37.443Z,3.30
2017-07-24T13:23:05.740Z,4.07
2017-07-24T13:25:33.291Z,3.30
2017-07-24T13:28:00.814Z,4.03
2017-07-24T13:30:28.366Z,4.80
2017-07-24T13:32:55.899Z,3.90
2017-07-24T13:35:23.463Z,3.60
2017-07-24T13:37:51.000Z,3.70
2017-07-24T13:40:18.523Z,2.80
2017-07-24T13:42:46.071Z,2.37
2017-07-24T13:45:13.599Z,2.27
2017-07-24T13:47:41.152Z,2.10
2017-07-24T13:50:08.686Z,1.90
2017-07-24T13:52:36.236Z,1.70
2017-07-24T13:55:04.526Z,1.87
2017-07-24T13:57:32.080Z,1.87
2017-07-24T13:59:59.598Z,2.20
2017-07-24T14:02:48.476Z,2.13
2017-07-24T14:05:16.002Z,2.67
2017-07-24T14:07:43.575Z,2.87
2017-07-24T14:10:11.098Z,3.10
2017-07-24T14:12:38.654Z,2.80
2017-07-24T14:15:06.186Z,3.60
2017-07-24T14:17:34.503Z,2.40
2017-07-24T14:20:02.030Z,3.10
2017-07-24T14:22:29.586Z,3.23
2017-07-24T14:24:57.882Z,3.37
2017-07-24T14:27:25.438Z,4.03
2017-07-24T14:29:52.972Z,3.40
2017-07-24T14:32:21.277Z,4.07
2017-07-24T14:34:48.826Z,3.53
2017-07-24T14:37:16.360Z,3.70
2017-07-24T14:39:43.913Z,3.87
2017-07-24T14:42:11.446Z,3.47
2017-07-24T14:44:39.009Z,4.17
2017-07-24T14:47:06.538Z,4.47
2017-07-24T14:49:34.090Z,3.70
2017-07-24T14:52:01.624Z,3.70
2017-07-24T14:54:29.952Z,3.30
2017-07-24T14:56:57.476Z,2.90
2017-07-24T14:59:25.792Z,2.67
2017-07-24T15:01:53.328Z,2.67
2017-07-24T15:04:20.887Z,2.60
2017-07-24T15:06:48.418Z,2.47
2017-07-24T15:09:16.733Z,2.70
2017-07-24T15:11:44.264Z,2.33
2017-07-24T15:14:11.815Z,2.60
2017-07-24T15:16:40.111Z,3.40
2017-07-24T15:19:07.678Z,3.80
2017-07-24T15:21:35.212Z,2.90
2017-07-24T15:24:03.535Z,2.33
2017-07-24T15:26:31.074Z,2.13
2017-07-24T15:28:58.603Z,2.10
2017-07-24T15:31:26.917Z,2.80
2017-07-24T15:33:54.450Z,3.70
2017-07-24T15:36:22.784Z,3.03
2017-07-24T15:38:50.342Z,2.30
2017-07-24T15:41:17.903Z,3.80
2017-07-24T15:43:45.439Z,2.60
2017-07-24T15:46:12.995Z,2.67
2017-07-24T15:48:40.547Z,3.27
2017-07-24T15:51:08.111Z,4.00
2017-07-24T15:53:36.734Z,3.37
2017-07-24T15:56:04.357Z,4.10
2017-07-24T15:58:31.900Z,3.53
2017-07-24T16:00:59.494Z,3.90
2017-07-24T16:03:27.026Z,4.50
2017-07-24T16:05:55.475Z,3.73
2017-07-24T16:08:23.066Z,4.00
2017-07-24T16:10:52.087Z,4.50
2017-07-24T16:13:20.832Z,4.00
2017-07-24T16:15:49.431Z,3.57
2017-07-24T16:18:19.601Z,4.17
2017-07-24T16:20:48.859Z,5.00
2017-07-24T16:23:19.195Z,4.80
2017-07-24T16:25:50.674Z,4.47
2017-07-24T16:28:18.345Z,4.60
2017-07-24T16:30:45.915Z,4.57
2017-07-24T16:33:13.530Z,3.70
2017-07-24T16:35:41.058Z,4.97
2017-07-24T16:38:08.620Z,5.83
2017-07-24T16:40:36.919Z,3.40
2017-07-24T16:43:04.478Z,4.07
2017-07-24T16:45:32.006Z,3.63
2017-07-24T16:47:59.691Z,2.80
2017-07-24T16:50:27.806Z,4.23
2017-07-24T16:52:55.870Z,3.10
2017-07-24T16:55:24.214Z,3.10
2017-07-24T16:57:52.535Z,4.60
2017-07-24T17:00:21.250Z,2.93
2017-07-24T17:02:49.614Z,3.63
2017-07-24T17:05:17.216Z,2.50
2017-07-24T17:07:44.770Z,3.07
2017-07-24T17:10:12.307Z,3.43
2017-07-24T17:12:39.873Z,3.20
2017-07-24T17:15:07.399Z,2.83
2017-07-24T17:17:34.948Z,3.70
2017-07-24T17:20:02.479Z,3.00
2017-07-24T17:22:30.043Z,3.17
2017-07-24T17:24:57.571Z,2.93
2017-07-24T17:27:25.094Z,3.10
2017-07-24T17:29:52.647Z,3.43
2017-07-24T17:32:20.178Z,2.90
2017-07-24T17:34:47.728Z,3.47
2017-07-24T17:37:15.259Z,3.10
2017-07-24T17:39:42.806Z,2.97
2017-07-24T17:42:10.334Z,3.40
2017-07-24T17:44:37.882Z,2.97
2017-07-24T17:47:05.410Z,3.13
2017-07-24T17:49:33.736Z,3.13
2017-07-24T17:52:01.258Z,3.57
2017-07-24T17:54:29.580Z,3.30
2017-07-24T17:56:57.117Z,3.73
2017-07-24T17:59:24.670Z,3.40
2017-07-24T18:01:52.206Z,3.63
2017-07-24T18:04:20.525Z,3.57
2017-07-24T18:06:48.050Z,3.57
2017-07-24T18:09:16.380Z,3.53
2017-07-24T18:11:43.911Z,3.20
2017-07-24T18:14:11.461Z,4.33
2017-07-24T18:16:38.993Z,3.37
2017-07-24T18:19:06.558Z,3.60
2017-07-24T18:21:34.855Z,3.30
2017-07-24T18:24:02.440Z,3.77
2017-07-24T18:26:29.962Z,3.47
2017-07-24T18:28:58.255Z,3.73
2017-07-24T18:31:25.834Z,3.60
2017-07-24T18:33:53.383Z,4.60
2017-07-24T18:36:20.949Z,3.87
2017-07-24T18:38:48.498Z,4.77
2017-07-24T18:41:16.056Z,5.03
2017-07-24T18:43:43.589Z,4.30
2017-07-24T18:46:11.266Z,5.00
2017-07-24T18:48:39.572Z,5.20
2017-07-24T18:51:07.123Z,3.87
2017-07-24T18:53:34.706Z,5.67
2017-07-24T18:56:02.260Z,5.30
2017-07-24T18:58:29.794Z,4.80
2017-07-24T19:00:57.496Z,5.70
2017-07-24T19:03:25.023Z,4.60
2017-07-24T19:05:52.581Z,5.17
2017-07-24T19:08:20.117Z,6.60
2017-07-24T19:10:48.435Z,5.37
2017-07-24T19:13:16.425Z,5.30
2017-07-24T19:15:43.995Z,6.07
2017-07-24T19:18:11.529Z,5.10
2017-07-24T19:20:39.503Z,5.07
2017-07-24T19:23:07.533Z,6.30
2017-07-24T19:25:35.183Z,6.50
2017-07-24T19:28:03.397Z,6.37
2017-07-24T19:30:31.879Z,7.07
2017-07-24T19:33:00.663Z,5.37
2017-07-24T19:35:28.886Z,7.10
2017-07-24T19:37:58.301Z,5.17
2017-07-24T19:40:25.864Z,5.50
2017-07-24T19:42:54.330Z,5.47
2017-07-24T19:45:21.855Z,5.67
2017-07-24T19:47:49.601Z,4.93
2017-07-24T19:50:17.619Z,5.10
2017-07-24T19:52:45.223Z,5.00
2017-07-24T19:55:12.751Z,5.77
2017-07-24T19:57:40.302Z,5.77
2017-07-24T20:00:07.825Z,5.77
2017-07-24T20:02:35.707Z,5.90
2017-07-24T20:05:03.246Z,6.13
2017-07-24T20:07:30.794Z,6.53
2017-07-24T20:09:58.331Z,6.50
2017-07-24T20:12:26.661Z,6.30
2017-07-24T20:14:54.186Z,8.33
2017-07-24T20:17:21.742Z,7.10
2017-07-24T20:19:49.274Z,6.30
2017-07-24T20:22:16.830Z,6.40
2017-07-24T20:24:44.358Z,7.10
2017-07-24T20:27:11.909Z,6.27
2017-07-24T20:29:39.449Z,6.20
2017-07-24T20:32:07.010Z,6.30
2017-07-24T20:34:34.535Z,6.57
2017-07-24T20:37:02.828Z,5.80
2017-07-24T20:39:30.395Z,7.70
2017-07-24T20:41:57.926Z,6.23
2017-07-24T20:44:25.479Z,7.40
2017-07-24T20:46:53.007Z,6.37
2017-07-24T20:49:20.570Z,5.83
2017-07-24T20:51:48.098Z,7.40
2017-07-24T20:54:15.660Z,7.73
2017-07-24T20:56:43.186Z,7.53
2017-07-24T20:59:10.751Z,7.80
2017-07-24T21:01:39.055Z,6.30
2017-07-24T21:04:06.606Z,7.13
2017-07-24T21:06:34.135Z,6.70
2017-07-24T21:09:01.701Z,8.03
2017-07-24T21:11:36.269Z,7.60
2017-07-24T21:14:04.264Z,7.53
2017-07-24T21:16:31.807Z,6.37
2017-07-24T21:18:59.358Z,5.03
2017-07-24T21:21:26.888Z,6.23
2017-07-24T21:23:54.452Z,6.70
2017-07-24T21:26:21.996Z,6.30
2017-07-24T21:28:50.328Z,5.97
2017-07-24T21:31:17.911Z,5.53
2017-07-24T21:33:45.457Z,5.20
2017-07-24T21:36:12.984Z,5.50
2017-07-24T21:38:40.560Z,4.87
2017-07-24T21:41:08.264Z,5.47
2017-07-24T21:43:35.786Z,4.80
2017-07-24T21:46:03.346Z,4.43
2017-07-24T21:48:30.879Z,4.60
2017-07-24T21:50:58.516Z,4.20
2017-07-24T21:53:26.048Z,4.03
2017-07-24T21:55:53.670Z,3.80
2017-07-24T21:58:21.203Z,3.90
2017-07-24T22:00:49.522Z,3.30
2017-07-24T22:03:17.051Z,4.20
2017-07-24T22:05:44.606Z,3.90
2017-07-24T22:08:12.899Z,3.70
2017-07-24T22:10:40.450Z,4.00
2017-07-24T22:13:07.990Z,3.97
2017-07-24T22:15:35.551Z,4.40
2017-07-24T22:18:03.078Z,3.60
2017-07-24T22:20:30.639Z,4.20
2017-07-24T22:22:58.162Z,4.13
2017-07-24T22:25:25.725Z,4.37
2017-07-24T22:27:53.254Z,4.07
2017-07-24T22:51:29.026Z,8.83
2017-07-24T22:53:56.568Z,7.83
2017-07-24T22:56:24.123Z,7.30
2017-07-24T22:58:51.651Z,7.53
2017-07-24T23:01:19.210Z,7.37
2017-07-24T23:03:46.756Z,7.70
2017-07-24T23:06:15.072Z,6.40
2017-07-24T23:08:42.612Z,6.73
2017-07-24T23:11:10.176Z,7.50
2017-07-24T23:13:37.711Z,6.90
2017-07-24T23:16:05.276Z,6.13
2017-07-24T23:18:32.816Z,6.90
2017-07-24T23:21:01.147Z,7.13
2017-07-24T23:23:28.679Z,7.03
2017-07-24T23:25:56.251Z,6.63
2017-07-24T23:28:23.781Z,6.90
2017-07-24T23:30:52.074Z,5.83
2017-07-24T23:33:19.627Z,6.07
2017-07-24T23:35:47.175Z,5.70
2017-07-24T23:38:15.498Z,6.00
2017-07-24T23:40:43.030Z,5.93
2017-07-24T23:43:10.591Z,5.97
2017-07-24T23:45:38.133Z,5.23
2017-07-24T23:48:06.456Z,6.80
2017-07-24T23:50:33.978Z,5.73
2017-07-24T23:53:01.541Z,6.10
2017-07-24T23:55:29.077Z,6.00
2017-07-24T23:57:56.630Z,5.90
